sensor_id;sensor_type;location;lat;lon;timestamp;P1;durP1;ratioP1;P2;durP2;ratioP2
62790;SDS011;48830;53.426;10.300;2023-02-07T00:00:48;12.37;;;8.73;;
62790;SDS011;48830;53.426;10.300;2023-02-07T00:03:14;14.43;;;8.50;;
62790;SDS011;48830;53.426;10.300;2023-02-07T00:05:39;14.53;;;8.60;;
62790;SDS011;48830;53.426;10.300;2023-02-07T00:08:05;15.33;;;9.00;;
62790;SDS011;48830;53.426;10.300;2023-02-07T00:10:31;14.67;;;8.37;;
62790;SDS011;48830;53.426;10.300;2023-02-07T00:12:58;14.83;;;8.87;;
62790;SDS011;48830;53.426;10.300;2023-02-07T00:15:24;15.73;;;8.57;;
62790;SDS011;48830;53.426;10.300;2023-02-07T00:17:50;14.47;;;8.50;;
62790;SDS011;48830;53.426;10.300;2023-02-07T00:20:15;14.20;;;8.07;;
62790;SDS011;48830;53.426;10.300;2023-02-07T00:22:42;15.97;;;8.40;;
62790;SDS011;48830;53.426;10.300;2023-02-07T00:25:08;14.17;;;8.90;;
62790;SDS011;48830;53.426;10.300;2023-02-07T00:27:34;15.80;;;7.97;;
62790;SDS011;48830;53.426;10.300;2023-02-07T00:29:59;14.73;;;8.10;;
62790;SDS011;48830;53.426;10.300;2023-02-07T00:32:24;14.17;;;7.90;;
62790;SDS011;48830;53.426;10.300;2023-02-07T00:34:50;13.43;;;8.07;;
62790;SDS011;48830;53.426;10.300;2023-02-07T00:37:16;12.60;;;7.30;;
62790;SDS011;48830;53.426;10.300;2023-02-07T00:39:42;12.83;;;7.83;;
62790;SDS011;48830;53.426;10.300;2023-02-07T00:42:07;11.93;;;7.77;;
62790;SDS011;48830;53.426;10.300;2023-02-07T00:44:32;13.47;;;7.70;;
62790;SDS011;48830;53.426;10.300;2023-02-07T00:46:58;13.73;;;7.57;;
62790;SDS011;48830;53.426;10.300;2023-02-07T00:49:24;12.47;;;8.23;;
62790;SDS011;48830;53.426;10.300;2023-02-07T00:51:49;12.53;;;8.17;;
62790;SDS011;48830;53.426;10.300;2023-02-07T00:54:15;11.43;;;7.37;;
62790;SDS011;48830;53.426;10.300;2023-02-07T00:56:42;12.30;;;7.50;;
62790;SDS011;48830;53.426;10.300;2023-02-07T00:59:07;11.03;;;7.33;;
62790;SDS011;48830;53.426;10.300;2023-02-07T01:01:33;12.40;;;7.20;;
62790;SDS011;48830;53.426;10.300;2023-02-07T01:03:59;12.80;;;7.77;;
62790;SDS011;48830;53.426;10.300;2023-02-07T01:06:25;13.47;;;7.60;;
62790;SDS011;48830;53.426;10.300;2023-02-07T01:08:55;13.37;;;7.37;;
62790;SDS011;48830;53.426;10.300;2023-02-07T01:11:22;15.67;;;8.67;;
62790;SDS011;48830;53.426;10.300;2023-02-07T01:13:47;12.73;;;7.40;;
62790;SDS011;48830;53.426;10.300;2023-02-07T01:16:19;11.70;;;7.47;;
62790;SDS011;48830;53.426;10.300;2023-02-07T01:18:48;13.33;;;7.57;;
62790;SDS011;48830;53.426;10.300;2023-02-07T01:21:14;13.73;;;7.03;;
62790;SDS011;48830;53.426;10.300;2023-02-07T01:23:41;11.97;;;6.87;;
62790;SDS011;48830;53.426;10.300;2023-02-07T01:26:07;13.07;;;7.40;;
62790;SDS011;48830;53.426;10.300;2023-02-07T01:28:32;12.03;;;7.70;;
62790;SDS011;48830;53.426;10.300;2023-02-07T01:30:58;12.13;;;6.97;;
62790;SDS011;48830;53.426;10.300;2023-02-07T01:33:23;11.67;;;7.37;;
62790;SDS011;48830;53.426;10.300;2023-02-07T01:35:49;14.00;;;7.63;;
62790;SDS011;48830;53.426;10.300;2023-02-07T01:38:14;12.80;;;7.20;;
62790;SDS011;48830;53.426;10.300;2023-02-07T01:40:40;12.60;;;7.70;;
62790;SDS011;48830;53.426;10.300;2023-02-07T01:43:06;12.50;;;6.83;;
62790;SDS011;48830;53.426;10.300;2023-02-07T01:45:36;14.23;;;7.67;;
62790;SDS011;48830;53.426;10.300;2023-02-07T01:48:11;13.00;;;7.47;;
62790;SDS011;48830;53.426;10.300;2023-02-07T01:50:41;12.90;;;7.70;;
62790;SDS011;48830;53.426;10.300;2023-02-07T01:53:11;12.30;;;8.00;;
62790;SDS011;48830;53.426;10.300;2023-02-07T01:55:38;13.87;;;7.87;;
62790;SDS011;48830;53.426;10.300;2023-02-07T01:58:07;14.30;;;7.23;;
62790;SDS011;48830;53.426;10.300;2023-02-07T02:00:34;13.23;;;7.20;;
62790;SDS011;48830;53.426;10.300;2023-02-07T02:03:00;13.70;;;8.03;;
62790;SDS011;48830;53.426;10.300;2023-02-07T02:05:26;14.03;;;8.37;;
62790;SDS011;48830;53.426;10.300;2023-02-07T02:07:54;14.57;;;7.57;;
62790;SDS011;48830;53.426;10.300;2023-02-07T02:10:22;12.50;;;7.37;;
62790;SDS011;48830;53.426;10.300;2023-02-07T02:15:36;14.67;;;8.23;;
62790;SDS011;48830;53.426;10.300;2023-02-07T02:23:17;15.03;;;8.27;;
62790;SDS011;48830;53.426;10.300;2023-02-07T02:34:35;12.87;;;7.93;;
62790;SDS011;48830;53.426;10.300;2023-02-07T02:40:21;12.77;;;7.23;;
62790;SDS011;48830;53.426;10.300;2023-02-07T02:42:58;14.87;;;7.50;;
62790;SDS011;48830;53.426;10.300;2023-02-07T02:45:32;12.07;;;7.50;;
62790;SDS011;48830;53.426;10.300;2023-02-07T02:48:03;11.80;;;7.13;;
62790;SDS011;48830;53.426;10.300;2023-02-07T02:50:33;12.30;;;7.30;;
62790;SDS011;48830;53.426;10.300;2023-02-07T02:52:59;13.67;;;7.17;;
62790;SDS011;48830;53.426;10.300;2023-02-07T02:55:39;14.07;;;7.70;;
62790;SDS011;48830;53.426;10.300;2023-02-07T03:17:36;14.13;;;7.43;;
62790;SDS011;48830;53.426;10.300;2023-02-07T03:22:57;12.27;;;6.73;;
62790;SDS011;48830;53.426;10.300;2023-02-07T03:25:26;13.30;;;6.93;;
62790;SDS011;48830;53.426;10.300;2023-02-07T03:27:54;14.53;;;7.80;;
62790;SDS011;48830;53.426;10.300;2023-02-07T03:30:20;13.13;;;7.10;;
62790;SDS011;48830;53.426;10.300;2023-02-07T03:32:49;11.57;;;7.43;;
62790;SDS011;48830;53.426;10.300;2023-02-07T03:37:51;15.03;;;7.60;;
62790;SDS011;48830;53.426;10.300;2023-02-07T03:40:19;18.43;;;8.30;;
62790;SDS011;48830;53.426;10.300;2023-02-07T03:42:47;14.23;;;8.27;;
62790;SDS011;48830;53.426;10.300;2023-02-07T03:45:17;13.80;;;7.70;;
62790;SDS011;48830;53.426;10.300;2023-02-07T03:47:44;13.07;;;7.60;;
62790;SDS011;48830;53.426;10.300;2023-02-07T03:50:11;14.63;;;7.93;;
62790;SDS011;48830;53.426;10.300;2023-02-07T03:52:37;13.87;;;7.43;;
62790;SDS011;48830;53.426;10.300;2023-02-07T03:55:03;12.93;;;7.87;;
62790;SDS011;48830;53.426;10.300;2023-02-07T03:57:29;13.30;;;7.50;;
62790;SDS011;48830;53.426;10.300;2023-02-07T03:59:54;14.97;;;7.67;;
62790;SDS011;48830;53.426;10.300;2023-02-07T04:02:20;16.63;;;8.10;;
62790;SDS011;48830;53.426;10.300;2023-02-07T04:04:45;13.40;;;7.83;;
62790;SDS011;48830;53.426;10.300;2023-02-07T04:07:11;15.60;;;8.20;;
62790;SDS011;48830;53.426;10.300;2023-02-07T04:09:36;15.40;;;8.70;;
62790;SDS011;48830;53.426;10.300;2023-02-07T04:12:02;14.93;;;9.00;;
62790;SDS011;48830;53.426;10.300;2023-02-07T04:14:28;16.37;;;8.90;;
62790;SDS011;48830;53.426;10.300;2023-02-07T04:16:54;15.63;;;9.10;;
62790;SDS011;48830;53.426;10.300;2023-02-07T04:19:19;18.63;;;10.40;;
62790;SDS011;48830;53.426;10.300;2023-02-07T04:21:45;16.93;;;10.07;;
62790;SDS011;48830;53.426;10.300;2023-02-07T04:24:11;20.23;;;10.23;;
62790;SDS011;48830;53.426;10.300;2023-02-07T04:26:36;16.97;;;10.03;;
62790;SDS011;48830;53.426;10.300;2023-02-07T04:29:02;19.87;;;10.90;;
62790;SDS011;48830;53.426;10.300;2023-02-07T04:31:28;20.33;;;10.70;;
62790;SDS011;48830;53.426;10.300;2023-02-07T04:33:54;21.27;;;11.63;;
62790;SDS011;48830;53.426;10.300;2023-02-07T04:36:20;21.23;;;11.40;;
62790;SDS011;48830;53.426;10.300;2023-02-07T04:38:46;23.97;;;12.90;;
62790;SDS011;48830;53.426;10.300;2023-02-07T04:41:12;25.37;;;11.93;;
62790;SDS011;48830;53.426;10.300;2023-02-07T04:43:38;29.20;;;12.97;;
62790;SDS011;48830;53.426;10.300;2023-02-07T04:46:04;57.63;;;15.73;;
62790;SDS011;48830;53.426;10.300;2023-02-07T04:48:30;32.63;;;15.73;;
62790;SDS011;48830;53.426;10.300;2023-02-07T04:50:57;68.33;;;16.50;;
62790;SDS011;48830;53.426;10.300;2023-02-07T04:53:22;52.37;;;15.37;;
62790;SDS011;48830;53.426;10.300;2023-02-07T04:55:49;30.60;;;15.00;;
62790;SDS011;48830;53.426;10.300;2023-02-07T04:58:14;36.97;;;15.60;;
62790;SDS011;48830;53.426;10.300;2023-02-07T05:00:40;38.17;;;16.13;;
62790;SDS011;48830;53.426;10.300;2023-02-07T05:03:06;40.43;;;16.80;;
62790;SDS011;48830;53.426;10.300;2023-02-07T05:05:31;40.20;;;16.97;;
62790;SDS011;48830;53.426;10.300;2023-02-07T05:07:57;36.30;;;17.00;;
62790;SDS011;48830;53.426;10.300;2023-02-07T05:10:22;44.00;;;17.50;;
62790;SDS011;48830;53.426;10.300;2023-02-07T05:12:48;39.60;;;17.67;;
62790;SDS011;48830;53.426;10.300;2023-02-07T05:15:13;36.77;;;17.63;;
62790;SDS011;48830;53.426;10.300;2023-02-07T05:17:39;34.87;;;17.13;;
62790;SDS011;48830;53.426;10.300;2023-02-07T05:20:05;42.73;;;19.33;;
62790;SDS011;48830;53.426;10.300;2023-02-07T05:22:31;39.80;;;19.40;;
62790;SDS011;48830;53.426;10.300;2023-02-07T05:24:57;38.23;;;17.60;;
62790;SDS011;48830;53.426;10.300;2023-02-07T05:27:22;38.70;;;18.27;;
62790;SDS011;48830;53.426;10.300;2023-02-07T05:29:48;36.43;;;17.03;;
62790;SDS011;48830;53.426;10.300;2023-02-07T05:32:14;34.17;;;16.53;;
62790;SDS011;48830;53.426;10.300;2023-02-07T05:34:59;52.67;;;17.73;;
62790;SDS011;48830;53.426;10.300;2023-02-07T05:37:25;54.77;;;17.10;;
62790;SDS011;48830;53.426;10.300;2023-02-07T05:39:51;39.23;;;18.00;;
62790;SDS011;48830;53.426;10.300;2023-02-07T05:42:16;43.30;;;18.17;;
62790;SDS011;48830;53.426;10.300;2023-02-07T05:44:42;39.23;;;17.47;;
62790;SDS011;48830;53.426;10.300;2023-02-07T05:47:07;41.40;;;17.30;;
62790;SDS011;48830;53.426;10.300;2023-02-07T05:49:33;39.30;;;17.77;;
62790;SDS011;48830;53.426;10.300;2023-02-07T05:51:58;35.27;;;17.33;;
62790;SDS011;48830;53.426;10.300;2023-02-07T05:54:24;42.07;;;17.90;;
62790;SDS011;48830;53.426;10.300;2023-02-07T05:56:49;35.27;;;17.23;;
62790;SDS011;48830;53.426;10.300;2023-02-07T05:59:15;37.40;;;16.93;;
62790;SDS011;48830;53.426;10.300;2023-02-07T06:01:40;38.23;;;18.43;;
62790;SDS011;48830;53.426;10.300;2023-02-07T06:04:06;34.00;;;16.67;;
62790;SDS011;48830;53.426;10.300;2023-02-07T06:06:31;35.93;;;16.53;;
62790;SDS011;48830;53.426;10.300;2023-02-07T06:08:57;38.07;;;18.00;;
62790;SDS011;48830;53.426;10.300;2023-02-07T06:11:22;37.73;;;18.33;;
62790;SDS011;48830;53.426;10.300;2023-02-07T06:13:48;34.83;;;16.70;;
62790;SDS011;48830;53.426;10.300;2023-02-07T06:16:13;31.90;;;17.13;;
62790;SDS011;48830;53.426;10.300;2023-02-07T06:18:39;38.60;;;18.47;;
62790;SDS011;48830;53.426;10.300;2023-02-07T06:21:04;37.27;;;17.63;;
62790;SDS011;48830;53.426;10.300;2023-02-07T06:23:30;35.93;;;16.57;;
62790;SDS011;48830;53.426;10.300;2023-02-07T06:25:55;39.57;;;17.93;;
62790;SDS011;48830;53.426;10.300;2023-02-07T06:28:21;37.30;;;17.60;;
62790;SDS011;48830;53.426;10.300;2023-02-07T06:30:46;47.53;;;19.90;;
62790;SDS011;48830;53.426;10.300;2023-02-07T06:33:12;33.27;;;16.83;;
62790;SDS011;48830;53.426;10.300;2023-02-07T06:35:37;36.70;;;17.40;;
62790;SDS011;48830;53.426;10.300;2023-02-07T06:38:03;36.13;;;17.47;;
62790;SDS011;48830;53.426;10.300;2023-02-07T06:40:28;35.63;;;17.67;;
62790;SDS011;48830;53.426;10.300;2023-02-07T06:42:54;37.23;;;17.37;;
62790;SDS011;48830;53.426;10.300;2023-02-07T06:45:19;36.50;;;16.90;;
62790;SDS011;48830;53.426;10.300;2023-02-07T06:47:45;39.10;;;18.63;;
62790;SDS011;48830;53.426;10.300;2023-02-07T06:50:10;37.27;;;16.33;;
62790;SDS011;48830;53.426;10.300;2023-02-07T06:52:36;33.23;;;16.80;;
62790;SDS011;48830;53.426;10.300;2023-02-07T06:55:01;33.60;;;16.97;;
62790;SDS011;48830;53.426;10.300;2023-02-07T06:57:27;38.07;;;18.10;;
62790;SDS011;48830;53.426;10.300;2023-02-07T06:59:53;36.37;;;18.40;;
62790;SDS011;48830;53.426;10.300;2023-02-07T07:02:18;33.53;;;16.20;;
62790;SDS011;48830;53.426;10.300;2023-02-07T07:04:43;34.10;;;16.93;;
62790;SDS011;48830;53.426;10.300;2023-02-07T07:07:09;38.70;;;17.53;;
62790;SDS011;48830;53.426;10.300;2023-02-07T07:09:35;38.27;;;17.77;;
62790;SDS011;48830;53.426;10.300;2023-02-07T07:12:00;34.47;;;16.50;;
62790;SDS011;48830;53.426;10.300;2023-02-07T07:14:26;31.67;;;15.97;;
62790;SDS011;48830;53.426;10.300;2023-02-07T07:16:51;32.47;;;15.73;;
62790;SDS011;48830;53.426;10.300;2023-02-07T07:19:17;33.00;;;15.77;;
62790;SDS011;48830;53.426;10.300;2023-02-07T07:21:42;32.97;;;16.60;;
62790;SDS011;48830;53.426;10.300;2023-02-07T07:24:07;35.83;;;16.83;;
62790;SDS011;48830;53.426;10.300;2023-02-07T07:26:33;37.23;;;15.70;;
62790;SDS011;48830;53.426;10.300;2023-02-07T07:28:58;34.07;;;16.40;;
62790;SDS011;48830;53.426;10.300;2023-02-07T07:31:25;32.63;;;16.70;;
62790;SDS011;48830;53.426;10.300;2023-02-07T07:33:52;34.03;;;17.20;;
62790;SDS011;48830;53.426;10.300;2023-02-07T07:36:18;33.70;;;16.53;;
62790;SDS011;48830;53.426;10.300;2023-02-07T07:38:43;49.90;;;16.97;;
62790;SDS011;48830;53.426;10.300;2023-02-07T07:41:09;34.30;;;15.57;;
62790;SDS011;48830;53.426;10.300;2023-02-07T07:43:34;32.43;;;15.83;;
62790;SDS011;48830;53.426;10.300;2023-02-07T07:46:00;27.27;;;15.13;;
62790;SDS011;48830;53.426;10.300;2023-02-07T07:48:25;33.87;;;15.90;;
62790;SDS011;48830;53.426;10.300;2023-02-07T07:50:52;32.67;;;16.23;;
62790;SDS011;48830;53.426;10.300;2023-02-07T07:53:18;32.37;;;16.30;;
62790;SDS011;48830;53.426;10.300;2023-02-07T07:55:47;33.43;;;15.87;;
62790;SDS011;48830;53.426;10.300;2023-02-07T07:58:14;29.27;;;15.17;;
62790;SDS011;48830;53.426;10.300;2023-02-07T08:00:40;53.33;;;19.83;;
62790;SDS011;48830;53.426;10.300;2023-02-07T08:03:06;36.20;;;18.37;;
62790;SDS011;48830;53.426;10.300;2023-02-07T08:05:31;40.80;;;18.80;;
62790;SDS011;48830;53.426;10.300;2023-02-07T08:07:56;33.03;;;16.87;;
62790;SDS011;48830;53.426;10.300;2023-02-07T08:10:22;31.57;;;16.13;;
62790;SDS011;48830;53.426;10.300;2023-02-07T08:12:47;36.77;;;16.60;;
62790;SDS011;48830;53.426;10.300;2023-02-07T08:15:13;32.27;;;15.40;;
62790;SDS011;48830;53.426;10.300;2023-02-07T08:17:38;31.97;;;14.87;;
62790;SDS011;48830;53.426;10.300;2023-02-07T08:20:04;34.77;;;15.47;;
62790;SDS011;48830;53.426;10.300;2023-02-07T08:22:30;31.60;;;16.40;;
62790;SDS011;48830;53.426;10.300;2023-02-07T08:24:55;31.30;;;15.73;;
62790;SDS011;48830;53.426;10.300;2023-02-07T08:27:21;32.70;;;15.80;;
62790;SDS011;48830;53.426;10.300;2023-02-07T08:29:46;32.70;;;16.63;;
62790;SDS011;48830;53.426;10.300;2023-02-07T08:32:13;37.57;;;16.73;;
62790;SDS011;48830;53.426;10.300;2023-02-07T08:34:38;33.17;;;16.90;;
62790;SDS011;48830;53.426;10.300;2023-02-07T08:37:04;30.60;;;15.87;;
62790;SDS011;48830;53.426;10.300;2023-02-07T08:39:31;32.87;;;15.50;;
62790;SDS011;48830;53.426;10.300;2023-02-07T08:41:57;37.83;;;17.83;;
62790;SDS011;48830;53.426;10.300;2023-02-07T08:44:23;32.57;;;16.23;;
62790;SDS011;48830;53.426;10.300;2023-02-07T08:46:48;35.17;;;15.50;;
62790;SDS011;48830;53.426;10.300;2023-02-07T08:49:14;32.50;;;16.30;;
62790;SDS011;48830;53.426;10.300;2023-02-07T08:51:40;32.73;;;16.30;;
62790;SDS011;48830;53.426;10.300;2023-02-07T08:54:06;32.00;;;15.03;;
62790;SDS011;48830;53.426;10.300;2023-02-07T08:56:32;32.43;;;16.27;;
62790;SDS011;48830;53.426;10.300;2023-02-07T08:58:57;28.47;;;15.40;;
62790;SDS011;48830;53.426;10.300;2023-02-07T09:01:23;29.43;;;14.77;;
62790;SDS011;48830;53.426;10.300;2023-02-07T09:03:49;32.97;;;15.90;;
62790;SDS011;48830;53.426;10.300;2023-02-07T09:06:15;31.47;;;15.97;;
62790;SDS011;48830;53.426;10.300;2023-02-07T09:08:40;32.80;;;16.87;;
62790;SDS011;48830;53.426;10.300;2023-02-07T09:11:06;33.40;;;17.23;;
62790;SDS011;48830;53.426;10.300;2023-02-07T09:13:31;29.63;;;15.80;;
62790;SDS011;48830;53.426;10.300;2023-02-07T09:15:57;35.43;;;16.90;;
62790;SDS011;48830;53.426;10.300;2023-02-07T09:18:23;33.10;;;17.17;;
62790;SDS011;48830;53.426;10.300;2023-02-07T09:20:50;30.60;;;15.20;;
62790;SDS011;48830;53.426;10.300;2023-02-07T09:23:16;29.17;;;15.60;;
62790;SDS011;48830;53.426;10.300;2023-02-07T09:25:45;33.77;;;16.47;;
62790;SDS011;48830;53.426;10.300;2023-02-07T09:28:12;36.03;;;18.23;;
62790;SDS011;48830;53.426;10.300;2023-02-07T09:30:44;33.67;;;16.90;;
62790;SDS011;48830;53.426;10.300;2023-02-07T09:33:11;29.17;;;14.90;;
62790;SDS011;48830;53.426;10.300;2023-02-07T09:35:38;30.30;;;16.30;;
62790;SDS011;48830;53.426;10.300;2023-02-07T09:38:05;34.77;;;17.67;;
62790;SDS011;48830;53.426;10.300;2023-02-07T09:40:32;32.17;;;16.77;;
62790;SDS011;48830;53.426;10.300;2023-02-07T09:45:47;28.73;;;15.40;;
62790;SDS011;48830;53.426;10.300;2023-02-07T09:48:19;32.50;;;16.60;;
62790;SDS011;48830;53.426;10.300;2023-02-07T09:50:56;31.20;;;16.07;;
62790;SDS011;48830;53.426;10.300;2023-02-07T09:53:43;31.37;;;16.77;;
62790;SDS011;48830;53.426;10.300;2023-02-07T09:56:14;33.80;;;17.90;;
62790;SDS011;48830;53.426;10.300;2023-02-07T10:01:29;33.17;;;17.13;;
62790;SDS011;48830;53.426;10.300;2023-02-07T10:06:55;35.17;;;17.53;;
62790;SDS011;48830;53.426;10.300;2023-02-07T10:09:32;30.27;;;17.60;;
62790;SDS011;48830;53.426;10.300;2023-02-07T10:27:25;37.43;;;19.47;;
62790;SDS011;48830;53.426;10.300;2023-02-07T10:30:30;34.73;;;19.73;;
62790;SDS011;48830;53.426;10.300;2023-02-07T10:33:16;35.37;;;20.17;;
62790;SDS011;48830;53.426;10.300;2023-02-07T10:35:44;34.80;;;18.90;;
62790;SDS011;48830;53.426;10.300;2023-02-07T10:38:14;37.53;;;19.83;;
62790;SDS011;48830;53.426;10.300;2023-02-07T10:43:46;40.53;;;20.30;;
62790;SDS011;48830;53.426;10.300;2023-02-07T10:46:14;36.30;;;20.73;;
62790;SDS011;48830;53.426;10.300;2023-02-07T10:48:44;37.87;;;19.30;;
62790;SDS011;48830;53.426;10.300;2023-02-07T10:54:00;34.53;;;19.20;;
62790;SDS011;48830;53.426;10.300;2023-02-07T10:56:41;33.13;;;19.13;;
62790;SDS011;48830;53.426;10.300;2023-02-07T11:01:59;32.57;;;18.20;;
62790;SDS011;48830;53.426;10.300;2023-02-07T11:04:37;36.53;;;20.73;;
62790;SDS011;48830;53.426;10.300;2023-02-07T11:07:12;32.73;;;18.77;;
62790;SDS011;48830;53.426;10.300;2023-02-07T11:09:40;36.97;;;20.13;;
62790;SDS011;48830;53.426;10.300;2023-02-07T11:12:22;36.63;;;20.40;;
62790;SDS011;48830;53.426;10.300;2023-02-07T11:14:58;39.73;;;21.73;;
62790;SDS011;48830;53.426;10.300;2023-02-07T11:17:25;36.80;;;20.57;;
62790;SDS011;48830;53.426;10.300;2023-02-07T11:19:51;37.30;;;21.17;;
62790;SDS011;48830;53.426;10.300;2023-02-07T11:22:17;37.73;;;19.93;;
62790;SDS011;48830;53.426;10.300;2023-02-07T11:24:45;35.97;;;20.00;;
62790;SDS011;48830;53.426;10.300;2023-02-07T11:27:13;32.40;;;18.03;;
62790;SDS011;48830;53.426;10.300;2023-02-07T11:32:13;36.27;;;19.00;;
62790;SDS011;48830;53.426;10.300;2023-02-07T11:42:41;33.47;;;19.77;;
62790;SDS011;48830;53.426;10.300;2023-02-07T11:45:12;29.90;;;18.40;;
62790;SDS011;48830;53.426;10.300;2023-02-07T11:47:40;32.63;;;19.70;;
62790;SDS011;48830;53.426;10.300;2023-02-07T11:50:16;32.20;;;19.73;;
62790;SDS011;48830;53.426;10.300;2023-02-07T11:53:03;28.70;;;17.40;;
62790;SDS011;48830;53.426;10.300;2023-02-07T11:55:39;28.83;;;19.10;;
62790;SDS011;48830;53.426;10.300;2023-02-07T11:58:12;30.23;;;18.80;;
62790;SDS011;48830;53.426;10.300;2023-02-07T12:00:44;29.27;;;18.33;;
62790;SDS011;48830;53.426;10.300;2023-02-07T12:03:21;29.47;;;19.13;;
62790;SDS011;48830;53.426;10.300;2023-02-07T12:05:50;29.10;;;18.53;;
62790;SDS011;48830;53.426;10.300;2023-02-07T12:08:19;26.10;;;17.58;;
62790;SDS011;48830;53.426;10.300;2023-02-07T12:10:50;31.40;;;18.60;;
62790;SDS011;48830;53.426;10.300;2023-02-07T12:13:23;26.77;;;18.30;;
62790;SDS011;48830;53.426;10.300;2023-02-07T12:15:55;24.70;;;17.38;;
62790;SDS011;48830;53.426;10.300;2023-02-07T12:18:32;26.90;;;17.98;;
62790;SDS011;48830;53.426;10.300;2023-02-07T12:21:05;23.60;;;16.38;;
62790;SDS011;48830;53.426;10.300;2023-02-07T12:23:44;25.67;;;17.30;;
62790;SDS011;48830;53.426;10.300;2023-02-07T12:27:00;26.77;;;16.77;;
62790;SDS011;48830;53.426;10.300;2023-02-07T12:32:22;26.20;;;17.67;;
62790;SDS011;48830;53.426;10.300;2023-02-07T12:35:10;22.98;;;16.60;;
62790;SDS011;48830;53.426;10.300;2023-02-07T13:05:06;22.05;;;16.02;;
62790;SDS011;48830;53.426;10.300;2023-02-07T13:07:40;22.58;;;15.75;;
62790;SDS011;48830;53.426;10.300;2023-02-07T13:10:19;20.83;;;14.93;;
62790;SDS011;48830;53.426;10.300;2023-02-07T13:15:59;21.25;;;14.73;;
62790;SDS011;48830;53.426;10.300;2023-02-07T13:24:04;19.80;;;14.82;;
62790;SDS011;48830;53.426;10.300;2023-02-07T13:26:34;19.10;;;13.70;;
62790;SDS011;48830;53.426;10.300;2023-02-07T13:29:19;19.52;;;14.68;;
62790;SDS011;48830;53.426;10.300;2023-02-07T13:31:50;20.40;;;14.77;;
62790;SDS011;48830;53.426;10.300;2023-02-07T13:34:20;16.42;;;13.35;;
62790;SDS011;48830;53.426;10.300;2023-02-07T13:36:49;17.95;;;13.85;;
62790;SDS011;48830;53.426;10.300;2023-02-07T13:52:38;22.30;;;15.15;;
62790;SDS011;48830;53.426;10.300;2023-02-07T14:01:27;17.88;;;13.20;;
62790;SDS011;48830;53.426;10.300;2023-02-07T14:06:36;17.65;;;13.38;;
62790;SDS011;48830;53.426;10.300;2023-02-07T14:11:41;18.20;;;13.18;;
62790;SDS011;48830;53.426;10.300;2023-02-07T14:16:55;15.05;;;11.90;;
62790;SDS011;48830;53.426;10.300;2023-02-07T14:24:48;13.85;;;11.18;;
62790;SDS011;48830;53.426;10.300;2023-02-07T14:30:55;11.40;;;7.68;;
62790;SDS011;48830;53.426;10.300;2023-02-07T14:41:13;9.48;;;7.00;;
62790;SDS011;48830;53.426;10.300;2023-02-07T14:43:42;10.02;;;7.10;;
62790;SDS011;48830;53.426;10.300;2023-02-07T14:46:16;9.00;;;6.43;;
62790;SDS011;48830;53.426;10.300;2023-02-07T14:51:23;10.57;;;7.05;;
62790;SDS011;48830;53.426;10.300;2023-02-07T14:54:15;9.10;;;6.35;;
62790;SDS011;48830;53.426;10.300;2023-02-07T15:07:55;10.75;;;7.10;;
62790;SDS011;48830;53.426;10.300;2023-02-07T15:10:45;10.63;;;7.50;;
62790;SDS011;48830;53.426;10.300;2023-02-07T15:13:25;10.73;;;7.38;;
62790;SDS011;48830;53.426;10.300;2023-02-07T15:18:54;12.38;;;7.68;;
62790;SDS011;48830;53.426;10.300;2023-02-07T15:21:29;10.55;;;7.75;;
62790;SDS011;48830;53.426;10.300;2023-02-07T15:24:03;12.55;;;7.85;;
62790;SDS011;48830;53.426;10.300;2023-02-07T15:26:31;11.48;;;7.95;;
62790;SDS011;48830;53.426;10.300;2023-02-07T15:29:03;12.00;;;9.05;;
62790;SDS011;48830;53.426;10.300;2023-02-07T15:31:36;12.57;;;8.65;;
62790;SDS011;48830;53.426;10.300;2023-02-07T15:34:04;12.98;;;8.35;;
62790;SDS011;48830;53.426;10.300;2023-02-07T15:36:37;10.57;;;7.05;;
62790;SDS011;48830;53.426;10.300;2023-02-07T15:39:05;12.83;;;8.10;;
62790;SDS011;48830;53.426;10.300;2023-02-07T15:41:37;12.27;;;7.50;;
62790;SDS011;48830;53.426;10.300;2023-02-07T15:44:03;12.25;;;7.25;;
62790;SDS011;48830;53.426;10.300;2023-02-07T15:46:43;11.23;;;7.20;;
62790;SDS011;48830;53.426;10.300;2023-02-07T15:49:23;17.83;;;11.10;;
62790;SDS011;48830;53.426;10.300;2023-02-07T15:54:32;19.60;;;13.57;;
62790;SDS011;48830;53.426;10.300;2023-02-07T15:57:02;22.13;;;14.70;;
62790;SDS011;48830;53.426;10.300;2023-02-07T15:59:29;21.70;;;13.77;;
62790;SDS011;48830;53.426;10.300;2023-02-07T16:01:56;22.90;;;14.97;;
62790;SDS011;48830;53.426;10.300;2023-02-07T16:04:28;21.50;;;14.03;;
62790;SDS011;48830;53.426;10.300;2023-02-07T16:07:03;26.50;;;16.97;;
62790;SDS011;48830;53.426;10.300;2023-02-07T16:09:42;23.43;;;15.80;;
62790;SDS011;48830;53.426;10.300;2023-02-07T16:12:28;24.37;;;16.00;;
62790;SDS011;48830;53.426;10.300;2023-02-07T16:14:59;25.60;;;16.33;;
62790;SDS011;48830;53.426;10.300;2023-02-07T16:17:35;22.17;;;15.17;;
62790;SDS011;48830;53.426;10.300;2023-02-07T16:20:08;23.97;;;15.57;;
62790;SDS011;48830;53.426;10.300;2023-02-07T16:22:38;25.07;;;15.67;;
62790;SDS011;48830;53.426;10.300;2023-02-07T16:25:04;24.07;;;14.83;;
62790;SDS011;48830;53.426;10.300;2023-02-07T16:27:30;23.00;;;15.17;;
62790;SDS011;48830;53.426;10.300;2023-02-07T16:29:58;26.27;;;16.00;;
62790;SDS011;48830;53.426;10.300;2023-02-07T16:32:30;22.93;;;15.17;;
62790;SDS011;48830;53.426;10.300;2023-02-07T16:34:57;23.90;;;14.53;;
62790;SDS011;48830;53.426;10.300;2023-02-07T16:37:24;26.33;;;15.20;;
62790;SDS011;48830;53.426;10.300;2023-02-07T16:39:51;25.83;;;16.23;;
62790;SDS011;48830;53.426;10.300;2023-02-07T16:42:16;25.83;;;16.20;;
62790;SDS011;48830;53.426;10.300;2023-02-07T16:44:44;26.80;;;16.33;;
62790;SDS011;48830;53.426;10.300;2023-02-07T16:47:11;28.47;;;18.17;;
62790;SDS011;48830;53.426;10.300;2023-02-07T16:49:38;26.90;;;16.33;;
62790;SDS011;48830;53.426;10.300;2023-02-07T16:52:04;25.60;;;15.63;;
62790;SDS011;48830;53.426;10.300;2023-02-07T16:54:29;25.83;;;16.67;;
62790;SDS011;48830;53.426;10.300;2023-02-07T16:56:56;23.23;;;15.83;;
62790;SDS011;48830;53.426;10.300;2023-02-07T16:59:23;29.23;;;16.20;;
62790;SDS011;48830;53.426;10.300;2023-02-07T17:01:50;26.17;;;15.37;;
62790;SDS011;48830;53.426;10.300;2023-02-07T17:04:17;25.50;;;16.10;;
62790;SDS011;48830;53.426;10.300;2023-02-07T17:06:42;24.27;;;14.60;;
62790;SDS011;48830;53.426;10.300;2023-02-07T17:09:13;25.47;;;16.40;;
62790;SDS011;48830;53.426;10.300;2023-02-07T17:11:40;22.73;;;14.40;;
62790;SDS011;48830;53.426;10.300;2023-02-07T17:14:05;30.20;;;16.43;;
62790;SDS011;48830;53.426;10.300;2023-02-07T17:16:31;25.70;;;16.10;;
62790;SDS011;48830;53.426;10.300;2023-02-07T17:18:56;24.93;;;15.30;;
62790;SDS011;48830;53.426;10.300;2023-02-07T17:21:22;28.83;;;16.30;;
62790;SDS011;48830;53.426;10.300;2023-02-07T17:23:48;27.70;;;16.13;;
62790;SDS011;48830;53.426;10.300;2023-02-07T17:26:17;27.03;;;15.83;;
62790;SDS011;48830;53.426;10.300;2023-02-07T17:28:48;26.20;;;15.93;;
62790;SDS011;48830;53.426;10.300;2023-02-07T17:31:14;27.50;;;16.73;;